SBCJ/CKS METAR and TAF weather

Enter ICAO airport designator
Station Type Date Time Source
SBCJ METAR 2019/06/26 21:30 UTC NOAA

SBCJ 262130Z 00000KT CAVOK 23/18 Q1016


Station Type Date Time Source
SBCJ Decoded METAR 2019/06/26 21:30 UTC NOAA

Carajas / Maraba, Brazil (SBCJ) 06-07S 050-00W
Jun 26, 2019 - 05:30 PM EDT / 2019.06.26 2130 UTC
Wind: Calm:0
Visibility: greater than 7 mile(s):0
Temperature: 73 F (23 C)
Dew Point: 64 F (18 C)
Relative Humidity: 73%
Pressure (altimeter): 30.00 in. Hg (1016 hPa)
ob: SBCJ 262130Z 00000KT CAVOK 23/18 Q1016
cycle: 21

Station Type Date Time Source
SBCJ TAF 2019/06/27 06:15 UTC NOAA

TAF TAF SBCJ 270400Z 2706/2718 10004KT CAVOK TN24/2711Z TX29/2718Z
BECMG 2714/2716 12005KT SCT030
RMK PHC

Example: see airport list